createdAt,value
2019-04-11T00:00:37.186Z,75.50
2019-04-11T00:03:06.518Z,75.57
2019-04-11T00:05:36.981Z,74.60
2019-04-11T00:08:06.436Z,78.28
2019-04-11T00:10:37.407Z,77.12
2019-04-11T00:13:17.273Z,72.87
2019-04-11T00:15:38.732Z,74.10
2019-04-11T00:18:08.341Z,67.78
2019-04-11T00:20:37.617Z,74.30
2019-04-11T00:23:08.051Z,73.72
2019-04-11T00:25:37.821Z,73.72
2019-04-11T00:28:07.756Z,72.03
2019-04-11T00:30:37.333Z,77.75
2019-04-11T00:33:07.776Z,74.12
2019-04-11T00:35:37.347Z,83.75
2019-04-11T00:38:07.644Z,70.78
2019-04-11T00:40:37.453Z,72.25
2019-04-11T00:43:07.342Z,75.17
2019-04-11T00:45:37.971Z,75.00
2019-04-11T00:48:07.428Z,73.28
2019-04-11T00:50:37.212Z,77.67
2019-04-11T00:53:06.606Z,72.05
2019-04-11T00:55:35.863Z,71.10
2019-04-11T00:58:05.571Z,74.85
2019-04-11T01:00:35.530Z,73.22
2019-04-11T01:03:06.485Z,68.75
2019-04-11T01:05:36.017Z,68.12
2019-04-11T01:08:07.526Z,68.12
2019-04-11T01:10:36.978Z,75.35
2019-04-11T01:13:07.144Z,77.50
2019-04-11T01:15:38.593Z,68.25
2019-04-11T01:18:07.895Z,70.95
2019-04-11T01:20:37.725Z,69.80
2019-04-11T01:23:07.134Z,72.70
2019-04-11T01:25:36.861Z,66.90
2019-04-11T01:28:06.787Z,67.72
2019-04-11T01:30:41.073Z,63.65
2019-04-11T01:33:10.872Z,64.85
2019-04-11T01:35:40.211Z,56.85
2019-04-11T01:38:10.332Z,51.18
2019-04-11T01:40:40.114Z,46.70
2019-04-11T01:43:09.520Z,48.10
2019-04-11T01:45:38.928Z,34.85
2019-04-11T01:48:19.575Z,35.63
2019-04-11T01:50:50.217Z,32.03
2019-04-11T01:53:20.015Z,29.70
2019-04-11T01:55:50.430Z,31.90
2019-04-11T01:58:19.767Z,30.90
2019-04-11T02:00:56.915Z,32.10
2019-04-11T02:03:30.857Z,32.75
2019-04-11T02:06:01.209Z,30.52
2019-04-11T02:08:31.293Z,34.08
2019-04-11T02:11:01.346Z,30.25
2019-04-11T02:13:30.700Z,31.35
2019-04-11T02:16:01.333Z,27.58
2019-04-11T02:18:31.587Z,29.37
2019-04-11T02:21:01.054Z,32.23
2019-04-11T02:23:35.103Z,31.93
2019-04-11T02:26:07.065Z,29.98
2019-04-11T02:28:37.022Z,33.35
2019-04-11T02:31:09.085Z,28.00
2019-04-11T02:33:38.793Z,28.62
2019-04-11T02:36:11.299Z,28.62
2019-04-11T02:38:41.046Z,28.95
2019-04-11T02:41:11.971Z,29.07
2019-04-11T02:43:44.149Z,27.73
2019-04-11T02:46:21.793Z,29.25
2019-04-11T02:48:42.851Z,26.62
2019-04-11T02:51:14.493Z,25.57
2019-04-11T02:53:44.990Z,26.33
2019-04-11T02:56:14.911Z,27.58
2019-04-11T02:58:46.318Z,26.15
2019-04-11T03:01:15.633Z,26.40
2019-04-11T03:03:45.501Z,31.48
2019-04-11T03:06:15.320Z,28.42
2019-04-11T03:08:44.626Z,26.07
2019-04-11T03:11:14.346Z,25.45
2019-04-11T03:13:44.427Z,26.57
2019-04-11T03:16:29.379Z,26.17
2019-04-11T03:19:00.642Z,29.92
2019-04-11T03:21:20.362Z,32.88
2019-04-11T03:23:46.984Z,27.90
2019-04-11T03:26:18.912Z,31.80
2019-04-11T03:28:50.233Z,31.35
2019-04-11T03:32:08.152Z,27.65
2019-04-11T03:37:08.856Z,29.65
2019-04-11T03:39:10.546Z,29.05
2019-04-11T03:41:39.987Z,29.48
2019-04-11T03:44:00.337Z,30.12
2019-04-11T03:46:40.405Z,27.65
2019-04-11T03:49:03.909Z,27.35
2019-04-11T03:51:27.725Z,30.52
2019-04-11T03:53:59.165Z,36.05
2019-04-11T03:56:28.689Z,24.95
2019-04-11T03:58:58.460Z,27.75
2019-04-11T04:01:29.471Z,29.75
2019-04-11T04:04:00.475Z,26.33
2019-04-11T04:06:31.020Z,25.43
2019-04-11T04:09:02.589Z,25.82
2019-04-11T04:11:34.256Z,26.48
2019-04-11T04:14:17.798Z,30.77
2019-04-11T04:16:59.130Z,27.37
2019-04-11T04:19:32.657Z,24.63
2019-04-11T04:22:07.312Z,24.85
2019-04-11T04:24:39.940Z,28.10
2019-04-11T04:27:09.949Z,28.73
2019-04-11T04:29:41.108Z,26.23
2019-04-11T04:32:11.955Z,25.23
2019-04-11T04:34:42.259Z,26.55
2019-04-11T04:37:12.193Z,27.32
2019-04-11T04:39:43.565Z,22.90
2019-04-11T04:42:23.555Z,27.13
2019-04-11T04:44:45.189Z,27.48
2019-04-11T04:47:22.115Z,30.10
2019-04-11T04:49:46.015Z,25.15
2019-04-11T04:52:16.599Z,24.80
2019-04-11T04:54:46.575Z,33.13
2019-04-11T04:57:18.256Z,26.00
2019-04-11T04:59:48.990Z,23.80
2019-04-11T05:02:20.051Z,25.92
2019-04-11T05:04:49.624Z,21.70
2019-04-11T05:07:19.445Z,23.32
2019-04-11T05:09:50.329Z,23.02
2019-04-11T05:12:22.471Z,24.85
2019-04-11T05:14:52.181Z,21.68
2019-04-11T05:17:23.108Z,23.38
2019-04-11T05:19:54.414Z,22.30
2019-04-11T05:22:24.642Z,20.85
2019-04-11T05:24:55.550Z,23.20
2019-04-11T05:27:25.145Z,25.23
2019-04-11T05:29:54.486Z,25.92
2019-04-11T05:32:24.250Z,23.27
2019-04-11T05:34:54.747Z,27.07
2019-04-11T05:37:24.010Z,23.20
2019-04-11T05:39:53.503Z,23.50
2019-04-11T05:42:25.546Z,32.78
2019-04-11T05:44:54.696Z,22.98
2019-04-11T05:47:25.500Z,24.85
2019-04-11T05:50:07.584Z,22.55
2019-04-11T05:52:35.178Z,23.00
2019-04-11T05:55:11.488Z,22.48
2019-04-11T05:57:41.476Z,22.17
2019-04-11T06:00:19.555Z,24.10
2019-04-11T06:02:57.423Z,25.25
2019-04-11T06:05:36.043Z,24.95
2019-04-11T06:08:07.799Z,24.20
2019-04-11T06:10:42.795Z,21.77
2019-04-11T06:13:28.810Z,21.05
2019-04-11T06:16:02.625Z,23.62
2019-04-11T06:18:37.757Z,23.60
2019-04-11T06:21:09.985Z,22.27
2019-04-11T06:23:47.631Z,23.38
2019-04-11T06:26:35.065Z,28.52
2019-04-11T06:29:17.451Z,24.02
2019-04-11T06:31:59.239Z,22.98
2019-04-11T06:34:30.413Z,22.70
2019-04-11T06:37:05.522Z,26.68
2019-04-11T06:39:39.784Z,26.00
2019-04-11T06:42:10.835Z,26.73
2019-04-11T06:44:41.772Z,24.32
2019-04-11T06:47:29.183Z,24.77
2019-04-11T06:50:02.910Z,20.43
2019-04-11T06:52:34.946Z,28.87
2019-04-11T06:55:07.250Z,32.50
2019-04-11T06:57:40.842Z,29.65
2019-04-11T07:00:14.738Z,25.02
2019-04-11T07:03:05.489Z,25.43
2019-04-11T07:05:36.611Z,23.87
2019-04-11T07:08:07.676Z,24.05
2019-04-11T07:10:42.461Z,27.65
2019-04-11T07:13:30.482Z,30.43
2019-04-11T07:16:00.474Z,27.50
2019-04-11T07:18:35.606Z,30.60
2019-04-11T07:21:06.664Z,24.57
2019-04-11T07:23:55.440Z,27.30
2019-04-11T07:26:33.077Z,24.80
2019-04-11T07:29:07.114Z,23.57
2019-04-11T07:31:48.190Z,27.35
2019-04-11T07:34:36.183Z,25.25
2019-04-11T07:37:23.700Z,27.48
2019-04-11T07:39:58.597Z,32.10
2019-04-11T07:42:46.859Z,25.02
2019-04-11T07:45:20.947Z,28.87
2019-04-11T07:47:52.647Z,28.30
2019-04-11T07:50:23.130Z,27.85
2019-04-11T07:53:04.885Z,27.32
2019-04-11T07:55:34.847Z,26.65
2019-04-11T07:58:13.050Z,29.20
2019-04-11T08:01:01.440Z,27.10
2019-04-11T08:03:49.208Z,26.80
2019-04-11T08:06:37.063Z,24.30
2019-04-11T08:09:24.644Z,27.35
2019-04-11T08:11:58.385Z,27.48
2019-04-11T08:14:30.645Z,27.48
2019-04-11T08:17:25.440Z,24.98
2019-04-11T08:19:46.922Z,27.10
2019-04-11T08:22:33.012Z,25.65
2019-04-11T08:25:13.295Z,31.67
2019-04-11T08:28:01.383Z,27.13
2019-04-11T08:30:29.146Z,27.35
2019-04-11T08:33:04.393Z,28.12
2019-04-11T08:35:38.297Z,27.02
2019-04-11T08:38:09.918Z,26.20
2019-04-11T08:40:49.901Z,33.15
2019-04-11T08:43:23.795Z,29.52
2019-04-11T08:46:11.259Z,29.63
2019-04-11T08:48:48.979Z,30.12
2019-04-11T08:51:20.059Z,27.13
2019-04-11T08:54:07.562Z,33.83
2019-04-11T08:56:39.534Z,29.45
2019-04-11T08:59:21.529Z,30.68
2019-04-11T09:01:51.879Z,27.48
2019-04-11T09:04:40.012Z,33.70
2019-04-11T09:07:11.656Z,35.35
2019-04-11T09:09:59.833Z,29.05
2019-04-11T09:12:29.302Z,27.70
2019-04-11T09:17:56.502Z,27.93
2019-04-11T09:20:38.076Z,31.45
2019-04-11T09:23:07.698Z,35.60
2019-04-11T09:25:41.362Z,27.85
2019-04-11T09:28:13.299Z,31.25
2019-04-11T09:30:57.012Z,29.12
2019-04-11T09:33:35.062Z,30.52
2019-04-11T09:36:22.360Z,29.87
2019-04-11T09:38:53.259Z,34.15
2019-04-11T09:41:42.724Z,30.97
2019-04-11T09:44:14.646Z,34.85
2019-04-11T09:47:03.870Z,33.25
2019-04-11T09:49:43.431Z,31.37
2019-04-11T09:52:17.057Z,31.57
2019-04-11T09:54:48.458Z,32.93
2019-04-11T09:57:26.751Z,30.68
2019-04-11T10:00:14.264Z,28.92
2019-04-11T10:02:48.426Z,34.10
2019-04-11T10:05:20.146Z,42.90
2019-04-11T10:08:08.578Z,34.43
2019-04-11T10:10:41.866Z,33.48
2019-04-11T10:13:18.640Z,32.10
2019-04-11T10:16:00.154Z,38.58
2019-04-11T10:18:49.551Z,32.85
2019-04-11T10:21:21.270Z,34.43
2019-04-11T10:24:09.533Z,40.30
2019-04-11T10:26:56.305Z,35.95
2019-04-11T10:29:34.515Z,36.55
2019-04-11T10:32:05.152Z,35.70
2019-04-11T10:34:37.480Z,33.67
2019-04-11T10:37:09.591Z,36.25
2019-04-11T10:39:53.582Z,38.23
2019-04-11T10:42:24.434Z,37.48
2019-04-11T10:44:58.356Z,36.48
2019-04-11T10:47:29.323Z,35.03
2019-04-11T10:50:00.897Z,39.38
2019-04-11T10:52:31.915Z,34.38
2019-04-11T10:55:05.827Z,36.83
2019-04-11T10:57:46.694Z,33.73
2019-04-11T11:00:23.600Z,35.98
2019-04-11T11:02:55.740Z,38.85
2019-04-11T11:05:26.655Z,33.73
2019-04-11T11:07:57.627Z,36.08
2019-04-11T11:10:28.871Z,38.98
2019-04-11T11:13:12.018Z,36.63
2019-04-11T11:15:42.638Z,36.40
2019-04-11T11:19:01.932Z,33.58
2019-04-11T11:21:00.278Z,35.13
2019-04-11T11:23:46.026Z,32.45
2019-04-11T11:26:21.430Z,35.17
2019-04-11T11:29:09.927Z,33.90
2019-04-11T11:31:44.780Z,38.05
2019-04-11T11:34:20.337Z,39.40
2019-04-11T11:36:53.549Z,36.38
2019-04-11T11:39:26.908Z,31.17
2019-04-11T11:42:14.606Z,51.10
2019-04-11T11:44:55.292Z,35.52
2019-04-11T11:47:42.000Z,41.73
2019-04-11T11:50:18.135Z,33.75
2019-04-11T11:52:46.619Z,34.90
2019-04-11T11:55:20.058Z,33.33
2019-04-11T11:57:51.008Z,38.23
2019-04-11T12:00:23.480Z,41.98
2019-04-11T12:03:03.758Z,35.65
2019-04-11T12:05:34.803Z,35.43
2019-04-11T12:08:08.787Z,34.83
2019-04-11T12:10:41.646Z,41.58
2019-04-11T12:13:28.335Z,37.53
2019-04-11T12:16:18.274Z,40.12
2019-04-11T12:19:04.626Z,38.15
2019-04-11T12:21:36.675Z,36.60
2019-04-11T12:24:25.086Z,43.55
2019-04-11T12:27:02.402Z,40.08
2019-04-11T12:29:44.402Z,40.35
2019-04-11T12:32:14.796Z,37.45
2019-04-11T12:34:51.599Z,36.95
2019-04-11T12:37:22.640Z,42.27
2019-04-11T12:40:09.700Z,40.88
2019-04-11T12:42:40.764Z,41.63
2019-04-11T12:45:20.182Z,39.40
2019-04-11T12:47:49.643Z,40.92
2019-04-11T12:50:35.537Z,42.00
2019-04-11T12:53:06.483Z,41.30
2019-04-11T12:55:37.373Z,42.85
2019-04-11T12:58:08.414Z,47.50
2019-04-11T13:00:51.427Z,48.92
2019-04-11T13:03:31.242Z,46.25
2019-04-11T13:06:02.152Z,41.55
2019-04-11T13:08:48.254Z,48.20
2019-04-11T13:11:19.271Z,45.90
2019-04-11T13:13:58.783Z,45.20
2019-04-11T13:16:28.550Z,43.65
2019-04-11T13:19:16.939Z,41.08
2019-04-11T13:21:50.810Z,45.78
2019-04-11T13:24:39.714Z,47.03
2019-04-11T13:27:13.091Z,45.23
2019-04-11T13:29:44.047Z,44.95
2019-04-11T13:32:33.187Z,46.33
2019-04-11T13:35:10.154Z,44.65
2019-04-11T13:37:57.574Z,48.70
2019-04-11T13:40:28.680Z,48.52
2019-04-11T13:43:16.055Z,46.73
2019-04-11T13:45:52.818Z,42.17
2019-04-11T13:48:39.112Z,49.00
2019-04-11T13:51:25.515Z,48.52
2019-04-11T13:54:12.867Z,52.53
2019-04-11T13:56:52.626Z,51.92
2019-04-11T13:59:35.778Z,46.90
2019-04-11T14:02:17.259Z,49.27
2019-04-11T14:04:51.111Z,49.35
2019-04-11T14:07:23.619Z,49.40
2019-04-11T14:10:05.638Z,50.15
2019-04-11T14:12:35.004Z,45.73
2019-04-11T14:15:07.844Z,53.40
2019-04-11T14:17:53.975Z,52.85
2019-04-11T14:20:29.830Z,56.20
2019-04-11T14:23:00.236Z,49.13
2019-04-11T14:25:47.398Z,52.93
2019-04-11T14:28:18.318Z,52.10
2019-04-11T14:30:52.209Z,52.10
2019-04-11T14:33:23.567Z,47.95
2019-04-11T14:35:58.370Z,58.53
2019-04-11T14:38:32.045Z,52.17
2019-04-11T14:41:12.903Z,51.20
2019-04-11T14:43:56.255Z,50.25
2019-04-11T14:46:42.154Z,57.17
2019-04-11T14:49:12.194Z,51.10
2019-04-11T14:51:59.443Z,51.35
2019-04-11T14:54:30.442Z,52.13
2019-04-11T14:57:16.762Z,53.70
2019-04-11T14:59:54.038Z,49.05
2019-04-11T15:02:37.627Z,50.00
2019-04-11T15:05:14.567Z,51.10
2019-04-11T15:07:46.066Z,49.85
2019-04-11T15:10:29.738Z,50.10
2019-04-11T15:13:00.306Z,51.90
2019-04-11T15:15:31.239Z,53.15
2019-04-11T15:18:02.342Z,54.00
2019-04-11T15:20:54.661Z,52.00
2019-04-11T15:23:21.234Z,50.55
2019-04-11T15:26:10.091Z,53.15
2019-04-11T15:28:43.699Z,57.10
2019-04-11T15:31:18.491Z,52.38
2019-04-11T15:34:05.137Z,51.63
2019-04-11T15:36:36.307Z,47.58
2019-04-11T15:39:23.920Z,52.40
2019-04-11T15:42:01.887Z,50.00
2019-04-11T15:44:36.494Z,53.17
2019-04-11T15:47:07.427Z,50.95
2019-04-11T15:49:38.391Z,52.93
2019-04-11T15:52:09.271Z,52.95
2019-04-11T15:54:40.182Z,51.08
2019-04-11T15:57:13.859Z,49.20
2019-04-11T15:59:57.145Z,53.87
2019-04-11T16:02:31.131Z,51.23
2019-04-11T16:05:02.842Z,52.93
2019-04-11T16:07:37.338Z,65.10
2019-04-11T16:10:11.699Z,56.00
2019-04-11T16:12:40.751Z,48.58
2019-04-11T16:15:11.659Z,49.80
2019-04-11T16:17:58.779Z,54.50
2019-04-11T16:20:28.054Z,55.00
2019-04-11T16:23:15.485Z,51.73
2019-04-11T16:25:46.466Z,54.05
2019-04-11T16:28:35.794Z,53.15
2019-04-11T16:31:05.483Z,56.75
2019-04-11T16:33:45.853Z,48.25
2019-04-11T16:36:17.690Z,53.68
2019-04-11T16:38:49.791Z,53.50
2019-04-11T16:41:37.748Z,53.92
2019-04-11T16:44:18.471Z,58.45
2019-04-11T16:47:08.239Z,51.48
2019-04-11T16:49:36.915Z,53.63
2019-04-11T16:52:08.368Z,51.30
2019-04-11T16:54:39.781Z,52.83
2019-04-11T16:57:08.066Z,52.78
2019-04-11T16:59:37.359Z,47.98
2019-04-11T17:02:06.667Z,59.20
2019-04-11T17:04:36.038Z,50.95
2019-04-11T17:07:23.805Z,52.73
2019-04-11T17:09:56.920Z,52.60
2019-04-11T17:12:27.233Z,49.45
2019-04-11T17:14:56.697Z,54.03
2019-04-11T17:17:26.378Z,49.60
2019-04-11T17:19:55.683Z,53.50
2019-04-11T17:22:24.990Z,52.83
2019-04-11T17:24:54.238Z,50.65
2019-04-11T17:27:23.783Z,54.98
2019-04-11T17:29:55.388Z,48.80
2019-04-11T17:32:25.948Z,50.15
2019-04-11T17:34:55.986Z,54.53
2019-04-11T17:37:25.283Z,49.90
2019-04-11T17:39:54.618Z,51.28
2019-04-11T17:42:23.970Z,52.40
2019-04-11T17:44:53.247Z,48.63
2019-04-11T17:47:26.767Z,49.45
2019-04-11T17:49:53.505Z,46.08
2019-04-11T17:52:22.932Z,50.78
2019-04-11T17:54:54.344Z,55.65
2019-04-11T17:57:26.727Z,53.52
2019-04-11T17:59:56.789Z,52.88
2019-04-11T18:02:25.395Z,54.90
2019-04-11T18:04:54.675Z,50.38
2019-04-11T18:07:23.979Z,51.70
2019-04-11T18:09:55.748Z,53.78
2019-04-11T18:12:26.213Z,50.90
2019-04-11T18:14:55.160Z,45.40
2019-04-11T18:17:26.503Z,44.58
2019-04-11T18:19:56.019Z,46.28
2019-04-11T18:22:25.379Z,45.52
2019-04-11T18:24:54.683Z,45.20
2019-04-11T18:27:23.946Z,47.98
2019-04-11T18:29:53.643Z,45.38
2019-04-11T18:32:23.174Z,43.98
2019-04-11T18:34:52.535Z,41.70
2019-04-11T18:37:21.802Z,40.92
2019-04-11T18:39:51.087Z,39.33
2019-04-11T18:42:20.392Z,40.45
2019-04-11T18:44:49.652Z,42.25
2019-04-11T18:47:18.911Z,38.30
2019-04-11T18:49:48.307Z,38.70
2019-04-11T18:52:19.889Z,39.13
2019-04-11T18:54:48.599Z,37.50
2019-04-11T18:57:17.930Z,37.23
2019-04-11T18:59:47.199Z,38.73
2019-04-11T19:02:16.487Z,38.73
2019-04-11T19:04:45.826Z,36.83
2019-04-11T19:07:27.152Z,39.15
2019-04-11T19:09:46.511Z,38.53
2019-04-11T19:12:16.430Z,58.00
2019-04-11T19:14:46.111Z,39.90
2019-04-11T19:17:16.442Z,36.60
2019-04-11T19:19:48.663Z,37.03
2019-04-11T19:22:19.404Z,37.45
2019-04-11T19:24:48.687Z,37.67
2019-04-11T19:27:20.494Z,39.70
2019-04-11T19:29:48.850Z,40.67
2019-04-11T19:32:18.480Z,35.05
2019-04-11T19:34:47.739Z,39.18
2019-04-11T19:37:17.032Z,37.98
2019-04-11T19:39:46.382Z,32.73
2019-04-11T19:42:18.745Z,35.95
2019-04-11T19:44:49.441Z,33.30
2019-04-11T19:47:21.389Z,34.48
2019-04-11T19:49:48.481Z,33.20
2019-04-11T19:52:17.815Z,36.45
2019-04-11T19:54:47.166Z,32.88
2019-04-11T19:57:16.427Z,36.45
2019-04-11T19:59:45.771Z,38.58
2019-04-11T20:02:15.031Z,36.73
2019-04-11T20:04:46.513Z,34.13
2019-04-11T20:07:15.274Z,32.63
2019-04-11T20:09:44.560Z,35.63
2019-04-11T20:12:13.825Z,37.88
2019-04-11T20:14:43.107Z,30.08
2019-04-11T20:17:12.527Z,35.38
2019-04-11T20:19:41.883Z,31.42
2019-04-11T20:22:11.144Z,38.33
2019-04-11T20:24:40.498Z,31.60
2019-04-11T20:27:09.778Z,32.23
2019-04-11T20:29:39.046Z,33.70
2019-04-11T20:32:08.303Z,37.35
2019-04-11T20:34:38.480Z,36.75
2019-04-11T20:37:12.655Z,32.42
2019-04-11T20:39:39.327Z,35.80
2019-04-11T20:42:08.604Z,33.00
2019-04-11T20:44:37.871Z,35.10
2019-04-11T20:47:07.236Z,35.55
2019-04-11T20:49:38.159Z,33.50
2019-04-11T20:52:07.443Z,31.85
2019-04-11T20:54:38.513Z,31.33
2019-04-11T20:57:11.910Z,33.45
2019-04-11T20:59:42.254Z,32.08
2019-04-11T21:02:09.468Z,31.68
2019-04-11T21:04:38.760Z,29.95
2019-04-11T21:07:08.043Z,35.68
2019-04-11T21:09:37.305Z,39.03
2019-04-11T21:12:07.482Z,34.38
2019-04-11T21:14:37.515Z,33.08
2019-04-11T21:17:06.849Z,30.10
2019-04-11T21:19:36.123Z,30.88
2019-04-11T21:22:06.378Z,31.70
2019-04-11T21:24:35.635Z,34.50
2019-04-11T21:27:05.459Z,34.88
2019-04-11T21:29:34.763Z,33.35
2019-04-11T21:32:04.048Z,32.08
2019-04-11T21:34:33.312Z,29.72
2019-04-11T21:37:02.812Z,33.48
2019-04-11T21:39:32.152Z,31.35
2019-04-11T21:42:05.695Z,31.42
2019-04-11T21:44:35.986Z,29.07
2019-04-11T21:47:03.204Z,32.10
2019-04-11T21:49:36.629Z,31.45
2019-04-11T21:52:03.374Z,32.80
2019-04-11T21:54:33.127Z,28.45
2019-04-11T21:57:03.359Z,30.05
2019-04-11T21:59:32.642Z,29.92
2019-04-11T22:02:01.907Z,32.70
2019-04-11T22:04:31.379Z,31.90
2019-04-11T22:07:01.440Z,29.30
2019-04-11T22:09:32.980Z,33.02
2019-04-11T22:12:01.886Z,30.92
2019-04-11T22:14:31.343Z,32.95
2019-04-11T22:17:00.602Z,31.80
2019-04-11T22:19:29.892Z,30.30
2019-04-11T22:21:59.146Z,28.52
2019-04-11T22:24:28.435Z,32.03
2019-04-11T22:26:57.695Z,31.27
2019-04-11T22:29:28.355Z,27.62
2019-04-11T22:31:57.642Z,27.77
2019-04-11T22:34:38.831Z,29.67
2019-04-11T22:37:08.127Z,35.05
2019-04-11T22:39:37.381Z,30.43
2019-04-11T22:42:06.803Z,27.05
2019-04-11T22:44:37.942Z,30.12
2019-04-11T22:47:08.033Z,28.67
2019-04-11T22:49:39.368Z,29.57
2019-04-11T22:52:11.355Z,28.67
2019-04-11T22:54:41.215Z,28.55
2019-04-11T22:57:12.181Z,29.52
2019-04-11T22:59:43.867Z,28.30
2019-04-11T23:02:16.860Z,28.80
2019-04-11T23:04:47.173Z,31.70
2019-04-11T23:07:17.784Z,33.28
2019-04-11T23:09:48.902Z,25.88
2019-04-11T23:12:17.826Z,28.42
2019-04-11T23:14:47.100Z,32.63
2019-04-11T23:17:16.402Z,35.85
2019-04-11T23:19:45.735Z,26.77
2019-04-11T23:22:15.023Z,28.38
2019-04-11T23:24:44.288Z,29.90
2019-04-11T23:27:13.571Z,30.23
2019-04-11T23:29:44.772Z,30.75
2019-04-11T23:32:13.775Z,29.50
2019-04-11T23:34:43.055Z,28.80
2019-04-11T23:37:12.322Z,31.70
2019-04-11T23:39:41.607Z,28.00
2019-04-11T23:42:10.871Z,29.35
2019-04-11T23:44:40.151Z,27.98
2019-04-11T23:47:09.478Z,29.60
2019-04-11T23:49:38.766Z,29.60
2019-04-11T23:52:08.027Z,28.50
2019-04-11T23:54:37.310Z,28.50
2019-04-11T23:57:06.584Z,35.38
2019-04-11T23:59:35.859Z,29.52
